createdAt,value
2018-12-15T01:01:35.383Z,56.68
2018-12-15T01:06:38.714Z,56.61
2018-12-15T01:11:42.801Z,56.28
2018-12-15T01:16:46.141Z,56.71
2018-12-15T01:21:50.236Z,56.09
2018-12-15T01:26:53.569Z,56.19
2018-12-15T02:35:20.618Z,57.06
2018-12-15T02:40:23.961Z,57.00
2018-12-15T02:45:28.056Z,56.76
2018-12-15T02:50:31.404Z,56.69
2018-12-15T02:55:35.514Z,56.80
2018-12-15T04:04:01.533Z,57.94
2018-12-15T04:09:05.652Z,57.42
2018-12-15T04:14:08.988Z,57.51
2018-12-15T04:19:12.335Z,57.36
2018-12-15T04:24:15.683Z,57.34
2018-12-15T04:29:19.790Z,57.46
2018-12-15T06:03:08.289Z,58.72
2018-12-15T06:08:11.624Z,58.44
2018-12-15T06:13:15.716Z,58.04
2018-12-15T06:18:19.138Z,57.88
2018-12-15T06:23:22.490Z,57.56
2018-12-15T06:28:25.828Z,57.20
2018-12-15T06:33:35.611Z,57.49
2018-12-15T06:38:38.948Z,57.19
2018-12-15T06:43:42.291Z,57.13
2018-12-15T06:48:45.621Z,56.41
2018-12-15T06:53:48.944Z,56.88
2018-12-15T06:58:52.296Z,57.79
2018-12-15T07:04:01.517Z,57.48
2018-12-15T07:09:04.861Z,57.07
2018-12-15T07:14:08.963Z,57.31
2018-12-15T07:19:22.592Z,57.03
2018-12-15T07:24:29.456Z,56.94
2018-12-15T07:29:34.890Z,57.08
2018-12-15T07:34:41.465Z,57.04
2018-12-15T07:39:46.515Z,56.65
2018-12-15T07:44:52.318Z,54.88
2018-12-15T07:50:01.973Z,54.98
2018-12-15T07:55:17.120Z,54.77
2018-12-15T08:00:30.305Z,54.46
2018-12-15T08:05:38.393Z,54.61
2018-12-15T08:10:49.939Z,54.13
2018-12-15T08:15:53.452Z,53.92
2018-12-15T08:20:59.627Z,53.45
2018-12-15T08:26:07.693Z,53.81
2018-12-15T08:31:12.695Z,54.36
2018-12-15T08:36:16.192Z,54.45
2018-12-15T08:41:21.062Z,54.32
2018-12-15T08:46:24.611Z,54.15
2018-12-15T08:51:31.578Z,53.91
2018-12-15T08:56:36.078Z,54.14
2018-12-15T09:01:47.237Z,54.20
2018-12-15T09:06:51.240Z,54.41
2018-12-15T09:11:55.366Z,54.39
2018-12-15T09:17:00.655Z,53.94
2018-12-15T09:22:14.975Z,54.45
2018-12-15T09:27:22.599Z,54.41
2018-12-15T09:32:29.694Z,55.14
2018-12-15T09:37:33.482Z,55.17
2018-12-15T09:42:38.633Z,55.08
2018-12-15T09:47:45.423Z,54.79
2018-12-15T09:52:51.413Z,54.94
2018-12-15T09:57:55.118Z,54.91
2018-12-15T10:02:58.856Z,54.95
2018-12-15T10:08:06.989Z,54.45
2018-12-15T10:13:12.659Z,54.65
2018-12-15T10:18:16.977Z,54.82
2018-12-15T10:23:21.468Z,54.55
2018-12-15T10:28:29.313Z,54.86
2018-12-15T10:33:33.007Z,55.36
2018-12-15T10:38:36.625Z,55.34
2018-12-15T10:43:40.239Z,55.06
2018-12-15T10:48:49.380Z,55.04
2018-12-15T10:53:54.597Z,54.28
2018-12-15T10:59:12.730Z,54.27
2018-12-15T11:04:20.430Z,54.23
2018-12-15T11:09:25.610Z,54.43
2018-12-15T11:14:29.223Z,53.98
2018-12-15T11:19:37.093Z,54.15
2018-12-15T11:24:37.559Z,54.57
2018-12-15T11:29:46.690Z,54.40
2018-12-15T11:34:52.008Z,53.64
2018-12-15T11:39:55.545Z,53.93
2018-12-15T11:44:59.123Z,54.17
2018-12-15T11:50:03.712Z,54.01
2018-12-15T11:55:08.025Z,53.69
2018-12-15T12:00:12.347Z,53.78
2018-12-15T12:05:15.920Z,53.83
2018-12-15T12:10:19.421Z,54.19
2018-12-15T12:15:22.986Z,53.91
2018-12-15T12:20:26.544Z,53.43
2018-12-15T12:25:30.062Z,54.06
2018-12-15T12:30:33.597Z,53.79
2018-12-15T12:35:37.960Z,53.75
2018-12-15T12:40:42.080Z,53.92
2018-12-15T12:45:46.393Z,53.43
2018-12-15T12:50:49.936Z,52.96
2018-12-15T12:55:53.600Z,53.38
2018-12-15T13:00:57.241Z,52.97
2018-12-15T13:06:01.637Z,52.54
2018-12-15T13:11:06.655Z,52.43
2018-12-15T13:16:23.257Z,52.33
2018-12-15T13:21:27.570Z,52.42
2018-12-15T13:26:31.125Z,52.66
2018-12-15T13:31:35.528Z,52.81
2018-12-15T13:36:39.850Z,51.93
2018-12-15T13:41:43.349Z,51.67
2018-12-15T13:46:50.673Z,51.59
2018-12-15T13:51:54.226Z,51.83
2018-12-15T13:56:58.512Z,51.77
2018-12-15T14:02:02.019Z,51.84
2018-12-15T14:07:05.701Z,52.08
2018-12-15T14:12:09.361Z,51.62
2018-12-15T14:17:12.886Z,51.58
2018-12-15T14:22:16.652Z,51.60
2018-12-15T14:27:22.037Z,51.92
2018-12-15T14:32:26.029Z,52.25
2018-12-15T14:37:31.227Z,52.30
2018-12-15T14:42:34.738Z,52.46
2018-12-15T14:47:39.460Z,52.48
2018-12-15T14:52:43.019Z,52.80
2018-12-15T14:57:46.538Z,52.82
2018-12-15T15:02:50.115Z,52.52
2018-12-15T15:07:53.591Z,52.59
2018-12-15T15:12:57.116Z,52.83
2018-12-15T15:18:03.698Z,53.46
2018-12-15T15:23:07.520Z,53.53
2018-12-15T15:28:12.461Z,52.60
2018-12-15T15:33:16.715Z,52.95
2018-12-15T15:38:21.119Z,53.09
2018-12-15T15:43:27.721Z,53.68
2018-12-15T15:48:32.199Z,53.36
2018-12-15T15:53:37.177Z,53.35
2018-12-15T15:58:40.663Z,53.85
2018-12-15T16:03:44.199Z,53.54
2018-12-15T16:08:47.894Z,53.38
2018-12-15T16:13:51.376Z,53.31
2018-12-15T16:18:54.856Z,53.12
2018-12-15T16:23:58.342Z,53.16
2018-12-15T16:29:01.851Z,53.46
2018-12-15T16:34:05.332Z,53.42
2018-12-15T16:39:08.780Z,53.22
2018-12-15T16:44:20.398Z,52.82
2018-12-15T16:49:23.885Z,52.86
2018-12-15T16:54:27.468Z,53.34
2018-12-15T16:59:30.950Z,53.61
2018-12-15T17:04:34.418Z,53.18
2018-12-15T17:09:37.897Z,52.99
2018-12-15T17:14:42.667Z,53.60
2018-12-15T17:19:46.291Z,53.38
2018-12-15T17:24:50.058Z,53.48
2018-12-15T17:29:53.928Z,53.24
2018-12-15T17:34:57.276Z,53.39
2018-12-15T17:40:01.013Z,53.39
2018-12-15T17:45:05.197Z,53.05
2018-12-15T17:50:08.530Z,53.88
2018-12-15T17:55:12.098Z,53.96
2018-12-15T18:00:15.521Z,54.43
2018-12-15T18:05:18.877Z,54.23
2018-12-15T18:10:22.242Z,53.92
2018-12-15T18:15:25.604Z,53.57
2018-12-15T18:20:28.957Z,53.15
2018-12-15T18:25:32.336Z,53.09
2018-12-15T18:30:35.676Z,52.64
2018-12-15T18:35:39.014Z,52.79
2018-12-15T18:40:42.369Z,52.98
2018-12-15T18:45:45.769Z,52.63
2018-12-15T18:50:49.101Z,52.16
2018-12-15T18:55:52.555Z,52.51
2018-12-15T19:00:55.920Z,52.50
2018-12-15T19:05:59.286Z,52.03
2018-12-15T19:11:02.651Z,52.11
2018-12-15T19:16:06.000Z,51.85
2018-12-15T19:21:09.333Z,52.06
2018-12-15T19:26:12.717Z,52.11
2018-12-15T19:31:16.068Z,52.04
2018-12-15T19:36:20.189Z,51.93
2018-12-15T19:41:24.351Z,51.91
2018-12-15T19:46:30.838Z,51.52
2018-12-15T19:51:34.250Z,51.38
2018-12-15T19:56:37.627Z,51.90
2018-12-15T20:01:41.762Z,51.67
2018-12-15T20:06:46.717Z,51.74
2018-12-15T20:11:51.272Z,52.02
2018-12-15T20:16:54.647Z,52.65
2018-12-15T20:21:57.983Z,52.30
2018-12-15T20:27:02.121Z,52.45
2018-12-15T20:32:05.477Z,52.78
2018-12-15T20:37:08.820Z,52.82
2018-12-15T20:42:12.208Z,53.20
2018-12-15T20:47:15.544Z,53.82
2018-12-15T20:52:18.883Z,53.72
2018-12-15T20:57:22.240Z,54.29
2018-12-15T21:02:25.593Z,55.67
2018-12-15T21:07:28.948Z,55.86
2018-12-15T21:12:32.287Z,55.64
2018-12-15T21:17:35.631Z,56.35
2018-12-15T21:22:38.999Z,56.66
2018-12-15T21:27:42.370Z,57.02
2018-12-15T21:32:45.712Z,57.10
2018-12-15T21:37:49.061Z,57.83
2018-12-15T21:42:53.203Z,57.95
2018-12-15T21:47:57.764Z,57.54
2018-12-15T21:52:59.941Z,57.80
2018-12-15T21:58:03.296Z,58.84
2018-12-15T22:03:09.915Z,58.67
2018-12-15T22:08:13.268Z,58.49
2018-12-15T22:13:16.593Z,58.16
2018-12-15T22:18:19.916Z,57.88
2018-12-15T22:23:23.244Z,58.09
2018-12-15T22:28:26.595Z,57.88
2018-12-15T22:33:29.941Z,57.64
2018-12-15T22:38:33.595Z,57.73
2018-12-15T22:43:37.715Z,58.32
2018-12-15T22:48:41.046Z,58.06
2018-12-15T22:53:44.384Z,57.80
2018-12-15T22:58:47.749Z,57.74
2018-12-15T23:35:31.909Z,57.60
2018-12-15T23:40:35.271Z,57.43
2018-12-15T23:45:39.368Z,57.52
2018-12-15T23:50:42.713Z,58.05
2018-12-15T23:55:46.063Z,57.66
